createdAt,value
2017-07-16T00:01:06.175Z,12.80
2017-07-16T00:03:32.360Z,12.90
2017-07-16T00:05:59.355Z,12.67
2017-07-16T00:08:25.562Z,13.70
2017-07-16T00:10:51.721Z,12.70
2017-07-16T00:13:17.881Z,13.37
2017-07-16T00:15:44.149Z,12.90
2017-07-16T00:18:10.346Z,14.07
2017-07-16T00:20:36.515Z,13.00
2017-07-16T00:23:04.202Z,13.83
2017-07-16T00:25:30.370Z,12.80
2017-07-16T00:27:56.520Z,14.00
2017-07-16T00:30:22.723Z,12.80
2017-07-16T00:32:49.555Z,12.93
2017-07-16T00:35:15.759Z,12.23
2017-07-16T00:37:43.227Z,13.07
2017-07-16T00:40:10.784Z,12.87
2017-07-16T00:42:37.680Z,14.57
2017-07-16T00:45:04.213Z,13.07
2017-07-16T00:47:30.372Z,13.43
2017-07-16T00:49:56.509Z,13.50
2017-07-16T00:52:22.677Z,13.33
2017-07-16T00:54:49.571Z,13.30
2017-07-16T00:57:15.715Z,13.30
2017-07-16T00:59:41.892Z,14.40
2017-07-16T01:02:08.765Z,14.43
2017-07-16T01:04:34.921Z,13.10
2017-07-16T01:07:01.426Z,13.87
2017-07-16T01:09:28.307Z,13.40
2017-07-16T01:11:54.449Z,14.00
2017-07-16T01:14:20.606Z,13.67
2017-07-16T01:16:46.776Z,14.37
2017-07-16T01:19:12.929Z,12.93
2017-07-16T01:21:39.099Z,13.30
2017-07-16T01:24:05.266Z,12.13
2017-07-16T01:26:32.168Z,12.30
2017-07-16T01:28:58.868Z,11.93
2017-07-16T01:31:25.767Z,11.73
2017-07-16T01:33:51.936Z,13.10
2017-07-16T01:36:18.934Z,12.20
2017-07-16T01:38:55.783Z,12.20
2017-07-16T01:41:23.563Z,11.07
2017-07-16T01:43:49.743Z,10.47
2017-07-16T01:46:16.668Z,11.73
2017-07-16T01:48:42.903Z,11.70
2017-07-16T01:51:09.077Z,11.27
2017-07-16T01:53:35.237Z,10.40
2017-07-16T01:56:01.407Z,11.13
2017-07-16T01:58:27.570Z,10.37
2017-07-16T02:00:53.696Z,10.60
2017-07-16T02:03:19.840Z,10.30
2017-07-16T02:05:46.002Z,11.10
2017-07-16T02:08:12.151Z,10.70
2017-07-16T02:10:38.341Z,9.10
2017-07-16T02:13:04.484Z,10.33
2017-07-16T02:15:31.378Z,9.97
2017-07-16T02:17:57.548Z,9.67
2017-07-16T02:20:24.477Z,9.33
2017-07-16T02:22:50.725Z,9.90
2017-07-16T02:25:16.901Z,9.40
2017-07-16T02:27:43.046Z,7.80
2017-07-16T02:30:09.213Z,9.00
2017-07-16T02:32:36.201Z,9.60
2017-07-16T02:35:03.064Z,8.90
2017-07-16T02:37:29.945Z,7.63
2017-07-16T02:39:57.258Z,10.03
2017-07-16T02:42:24.776Z,8.67
2017-07-16T02:44:50.922Z,9.10
2017-07-16T02:47:17.075Z,8.30
2017-07-16T02:49:43.221Z,9.50
2017-07-16T02:52:09.369Z,8.13
2017-07-16T02:54:35.559Z,7.97
2017-07-16T02:57:01.704Z,8.30
2017-07-16T02:59:27.844Z,8.63
2017-07-16T03:01:54.736Z,8.00
2017-07-16T03:04:20.868Z,8.43
2017-07-16T03:06:46.996Z,9.37
2017-07-16T03:09:13.168Z,8.13
2017-07-16T03:11:39.300Z,8.60
2017-07-16T03:14:05.442Z,6.63
2017-07-16T03:16:34.057Z,8.27
2017-07-16T03:19:00.929Z,7.80
2017-07-16T03:21:27.060Z,8.67
2017-07-16T03:23:53.221Z,8.37
2017-07-16T03:26:19.362Z,7.83
2017-07-16T03:28:45.510Z,8.83
2017-07-16T03:31:12.504Z,8.60
2017-07-16T03:33:38.650Z,9.40
2017-07-16T03:36:04.781Z,8.33
2017-07-16T03:38:31.310Z,9.60
2017-07-16T03:40:59.872Z,8.80
2017-07-16T03:43:29.072Z,8.50
2017-07-16T03:45:55.201Z,7.87
2017-07-16T03:48:21.343Z,8.00
2017-07-16T03:50:49.118Z,7.60
2017-07-16T03:53:15.278Z,8.60
2017-07-16T03:55:41.412Z,7.47
2017-07-16T03:58:08.716Z,7.40
2017-07-16T04:00:35.617Z,8.50
2017-07-16T04:03:01.757Z,7.97
2017-07-16T04:05:28.791Z,8.43
2017-07-16T04:07:54.924Z,7.07
2017-07-16T04:10:21.080Z,6.93
2017-07-16T04:12:47.238Z,7.07
2017-07-16T04:15:13.389Z,6.97
2017-07-16T04:17:39.526Z,8.40
2017-07-16T04:20:06.472Z,6.93
2017-07-16T04:22:33.359Z,7.70
2017-07-16T04:24:59.500Z,8.00
2017-07-16T04:27:26.524Z,7.80
2017-07-16T04:29:53.401Z,7.57
2017-07-16T04:32:19.547Z,8.07
2017-07-16T04:34:46.070Z,8.13
2017-07-16T04:37:12.221Z,7.90
2017-07-16T04:39:38.371Z,7.60
2017-07-16T04:42:05.780Z,7.40
2017-07-16T04:44:33.297Z,7.10
2017-07-16T04:46:59.441Z,6.33
2017-07-16T04:49:25.576Z,7.60
2017-07-16T04:51:51.704Z,7.43
2017-07-16T04:54:17.848Z,7.70
2017-07-16T04:56:44.926Z,6.90
2017-07-16T04:59:11.801Z,7.23
2017-07-16T05:01:37.941Z,6.50
2017-07-16T05:04:04.648Z,6.70
2017-07-16T05:06:31.519Z,7.40
2017-07-16T05:08:57.677Z,7.43
2017-07-16T05:11:23.846Z,6.27
2017-07-16T05:13:49.992Z,6.60
2017-07-16T05:16:16.876Z,7.90
2017-07-16T05:18:50.792Z,6.80
2017-07-16T05:21:16.933Z,7.10
2017-07-16T05:23:43.068Z,5.93
2017-07-16T05:26:09.995Z,6.80
2017-07-16T05:28:36.124Z,5.60
2017-07-16T05:31:02.272Z,5.83
2017-07-16T05:33:28.436Z,6.00
2017-07-16T05:35:54.796Z,6.87
2017-07-16T05:38:21.681Z,5.20
2017-07-16T05:40:47.823Z,5.77
2017-07-16T05:43:14.079Z,5.80
2017-07-16T05:45:41.865Z,5.53
2017-07-16T05:48:08.057Z,5.07
2017-07-16T05:50:34.177Z,5.00
2017-07-16T05:53:00.328Z,4.30
2017-07-16T05:55:26.603Z,4.97
2017-07-16T05:57:52.781Z,4.40
2017-07-16T06:00:18.937Z,3.73
2017-07-16T06:02:45.078Z,3.93
2017-07-16T06:05:11.215Z,4.00
2017-07-16T06:07:37.356Z,3.80
2017-07-16T06:10:03.829Z,5.10
2017-07-16T06:12:30.704Z,7.20
2017-07-16T06:14:56.835Z,5.80
2017-07-16T06:17:22.977Z,5.53
2017-07-16T06:19:49.117Z,4.30
2017-07-16T06:22:15.248Z,4.43
2017-07-16T14:27:18.331Z,27.98
2017-07-16T14:29:45.244Z,27.90
2017-07-16T14:32:11.429Z,31.30
2017-07-16T14:34:39.093Z,32.37
2017-07-16T14:37:06.727Z,38.40
2017-07-16T14:39:33.403Z,66.17
2017-07-16T14:42:00.320Z,39.67
2017-07-16T14:44:26.477Z,41.63
2017-07-16T14:46:53.505Z,32.67
2017-07-16T14:49:20.544Z,41.97
2017-07-16T14:51:46.753Z,32.67
2017-07-16T14:54:12.912Z,30.07
2017-07-16T14:56:39.080Z,32.83
2017-07-16T14:59:06.782Z,28.97
2017-07-16T15:01:32.929Z,28.77
2017-07-16T15:03:59.112Z,28.80
2017-07-16T15:06:26.269Z,29.07
2017-07-16T15:08:53.128Z,27.60
2017-07-16T15:11:20.627Z,27.57
2017-07-16T15:13:46.857Z,30.00
2017-07-16T15:16:13.023Z,35.47
2017-07-16T15:18:39.238Z,33.17
2017-07-16T15:21:05.424Z,32.87
2017-07-16T15:23:32.341Z,30.77
2017-07-16T15:25:59.423Z,33.10
2017-07-16T15:28:26.259Z,32.47
2017-07-16T15:30:52.701Z,33.30
2017-07-16T15:33:22.640Z,34.77
2017-07-16T15:35:50.837Z,35.30
2017-07-16T15:38:17.786Z,33.60
2017-07-16T15:40:43.941Z,35.03
2017-07-16T15:43:12.561Z,34.00
2017-07-16T15:45:38.769Z,33.60
2017-07-16T15:48:04.931Z,35.53
2017-07-16T15:50:31.384Z,36.60
2017-07-16T15:52:57.608Z,35.40
2017-07-16T15:55:23.795Z,36.20
2017-07-16T15:57:49.965Z,38.90
2017-07-16T16:00:16.421Z,37.53
2017-07-16T16:02:42.617Z,38.80
2017-07-16T16:05:09.192Z,38.77
2017-07-16T16:07:36.199Z,40.80
2017-07-16T16:10:02.518Z,41.23
2017-07-16T16:12:29.377Z,42.67
2017-07-16T16:14:56.072Z,43.07
2017-07-16T16:17:23.032Z,59.57
2017-07-16T16:19:49.212Z,47.70
2017-07-16T16:22:15.929Z,43.57
2017-07-16T16:24:42.142Z,45.37
2017-07-16T16:27:09.097Z,52.20
2017-07-16T16:29:47.175Z,53.30
2017-07-16T16:32:13.576Z,42.23
2017-07-16T16:34:39.755Z,35.37
2017-07-16T16:37:07.896Z,31.97
2017-07-16T16:39:34.765Z,30.13
2017-07-16T16:42:01.268Z,22.43
2017-07-16T16:44:28.120Z,21.57
2017-07-16T16:46:54.311Z,21.90
2017-07-16T16:49:21.631Z,18.23
2017-07-16T16:51:47.828Z,16.93
2017-07-16T16:54:15.042Z,14.30
2017-07-16T16:56:41.647Z,11.03
2017-07-16T16:59:09.798Z,11.60
2017-07-16T17:01:36.444Z,15.93
2017-07-16T17:04:11.707Z,11.07
2017-07-16T17:06:38.081Z,10.10
2017-07-16T17:09:04.251Z,8.50
2017-07-16T17:11:30.435Z,8.97
2017-07-16T17:13:56.569Z,10.50
2017-07-16T17:16:22.716Z,9.60
2017-07-16T17:18:49.538Z,8.10
2017-07-16T17:21:15.781Z,8.23
2017-07-16T17:23:42.018Z,8.90
2017-07-16T17:26:08.295Z,39.77
2017-07-16T17:28:34.555Z,23.43
2017-07-16T17:31:03.367Z,8.10
2017-07-16T17:33:29.894Z,9.20
2017-07-16T17:35:56.920Z,7.10
2017-07-16T17:38:23.381Z,6.60
2017-07-16T17:40:50.565Z,6.87
2017-07-16T17:43:17.825Z,6.53
2017-07-16T17:45:44.618Z,6.00
2017-07-16T17:48:11.310Z,6.53
2017-07-16T17:50:38.318Z,6.03
2017-07-16T17:53:05.343Z,6.00
2017-07-16T17:55:32.250Z,5.13
2017-07-16T17:57:59.040Z,5.07
2017-07-16T18:00:27.091Z,4.43
2017-07-16T18:02:55.452Z,5.13
2017-07-16T18:05:21.728Z,4.70
2017-07-16T18:07:48.572Z,5.63
2017-07-16T18:10:15.288Z,4.40
2017-07-16T18:12:41.795Z,4.17
2017-07-16T18:15:08.076Z,5.67
2017-07-16T18:17:34.721Z,4.60
2017-07-16T18:20:01.943Z,14.47
2017-07-16T18:22:28.932Z,21.30
2017-07-16T18:24:56.358Z,33.07
2017-07-16T18:27:23.073Z,11.30
2017-07-16T18:29:49.693Z,5.90
2017-07-16T18:32:16.583Z,5.03
2017-07-16T18:34:43.597Z,4.83
2017-07-16T18:37:10.443Z,5.60
2017-07-16T18:39:37.239Z,7.37
2017-07-16T18:42:04.289Z,5.00
2017-07-16T18:44:31.925Z,5.20
2017-07-16T18:46:58.396Z,5.40
2017-07-16T18:49:25.225Z,4.73
2017-07-16T18:51:51.500Z,4.03
2017-07-16T18:54:18.532Z,4.83
2017-07-16T18:56:44.935Z,4.23
2017-07-16T18:59:13.299Z,4.60
2017-07-16T19:01:40.262Z,4.97
2017-07-16T19:04:07.950Z,5.00
2017-07-16T19:06:35.756Z,4.47
2017-07-16T19:09:02.001Z,4.80
2017-07-16T19:11:28.239Z,4.97
2017-07-16T19:13:55.269Z,5.03
2017-07-16T19:16:21.590Z,5.43
2017-07-16T19:18:47.856Z,6.13
2017-07-16T19:21:14.851Z,5.33
2017-07-16T19:23:42.174Z,5.97
2017-07-16T19:26:08.690Z,5.33
2017-07-16T19:28:35.195Z,5.60
2017-07-16T19:31:05.537Z,13.40
2017-07-16T19:33:34.601Z,8.60
2017-07-16T19:36:07.307Z,14.90
2017-07-16T19:38:33.549Z,28.23
2017-07-16T19:41:00.240Z,27.40
2017-07-16T19:43:27.220Z,9.00
2017-07-16T19:45:54.255Z,16.70
2017-07-16T19:48:21.227Z,24.90
2017-07-16T19:50:47.559Z,42.73
2017-07-16T19:53:16.519Z,39.63
2017-07-16T19:55:43.622Z,158.00
2017-07-16T19:58:10.997Z,48.13
2017-07-16T20:00:37.893Z,82.60
2017-07-16T20:03:04.533Z,31.93
2017-07-16T20:05:32.164Z,70.07
2017-07-16T20:07:58.460Z,8.70
2017-07-16T20:10:26.192Z,22.70
2017-07-16T20:12:55.635Z,40.63
2017-07-16T20:15:22.215Z,23.27
2017-07-16T20:17:48.492Z,39.47
2017-07-16T20:20:19.273Z,17.00
2017-07-16T20:22:45.644Z,26.00
2017-07-16T20:25:12.144Z,74.10
2017-07-16T20:27:38.409Z,109.30
2017-07-16T20:30:14.449Z,25.07
2017-07-16T20:32:43.896Z,16.60
2017-07-16T20:35:10.362Z,14.00
2017-07-16T20:37:38.720Z,53.10
2017-07-16T20:40:12.829Z,17.77
2017-07-16T20:42:40.031Z,15.37
2017-07-16T20:45:07.087Z,36.27
2017-07-16T20:47:33.447Z,26.30
2017-07-16T20:50:00.453Z,11.33
2017-07-16T20:52:28.647Z,10.40
2017-07-16T20:54:54.907Z,11.03
2017-07-16T20:57:21.228Z,50.30
2017-07-16T20:59:47.493Z,11.57
2017-07-16T21:02:13.890Z,7.23
2017-07-16T21:04:41.208Z,6.40
2017-07-16T21:07:09.256Z,8.90
2017-07-16T21:09:35.629Z,7.20
2017-07-16T21:12:02.828Z,7.67
2017-07-16T21:14:29.066Z,7.37
2017-07-16T21:16:55.308Z,7.67
2017-07-16T21:19:21.605Z,7.60
2017-07-16T21:21:48.583Z,7.10
2017-07-16T21:24:14.891Z,6.30
2017-07-16T21:26:41.158Z,7.13
2017-07-16T21:29:07.457Z,6.73
2017-07-16T21:31:34.948Z,7.30
2017-07-16T21:34:02.267Z,6.90
2017-07-16T21:36:28.527Z,8.50
2017-07-16T21:38:56.263Z,7.27
2017-07-16T21:41:23.319Z,6.80
2017-07-16T21:43:49.956Z,7.90
2017-07-16T21:46:16.379Z,7.33
2017-07-16T21:48:42.657Z,7.37
2017-07-16T21:51:10.754Z,6.93
2017-07-16T21:53:37.600Z,6.70
2017-07-16T21:56:04.564Z,7.10
2017-07-16T21:58:31.391Z,8.70
2017-07-16T22:00:58.395Z,9.57
2017-07-16T22:03:26.450Z,8.33
2017-07-16T22:05:53.367Z,6.97
2017-07-16T22:08:22.131Z,7.50
2017-07-16T22:10:48.642Z,8.93
2017-07-16T22:13:21.987Z,7.63
2017-07-16T22:15:48.963Z,8.03
2017-07-16T22:18:15.260Z,8.57
2017-07-16T22:20:41.484Z,35.17
2017-07-16T22:23:08.967Z,49.10
2017-07-16T22:25:36.603Z,32.20
2017-07-16T22:28:02.830Z,18.17
2017-07-16T22:30:29.078Z,12.63
2017-07-16T22:32:55.302Z,9.50
2017-07-16T22:35:21.578Z,9.20
2017-07-16T22:37:47.882Z,10.40
2017-07-16T22:40:14.135Z,9.57
2017-07-16T22:42:47.379Z,9.67
2017-07-16T22:45:13.610Z,10.90
2017-07-16T22:47:39.841Z,9.50
2017-07-16T22:50:06.821Z,9.33
2017-07-16T22:52:33.051Z,8.53
2017-07-16T22:54:59.312Z,8.83
2017-07-16T22:57:26.098Z,10.23
2017-07-16T22:59:53.065Z,9.10
2017-07-16T23:02:19.307Z,9.73
2017-07-16T23:04:45.577Z,8.60
2017-07-16T23:07:12.454Z,8.53
2017-07-16T23:09:40.072Z,7.87
2017-07-16T23:12:06.317Z,8.60
2017-07-16T23:14:32.636Z,8.17
2017-07-16T23:16:58.861Z,8.80
2017-07-16T23:19:26.017Z,8.63
2017-07-16T23:21:52.247Z,9.03
2017-07-16T23:24:18.497Z,8.57
2017-07-16T23:26:44.748Z,8.60
2017-07-16T23:29:11.021Z,10.37
2017-07-16T23:31:37.251Z,9.07
2017-07-16T23:34:03.701Z,10.10
2017-07-16T23:36:30.683Z,9.60
2017-07-16T23:38:56.917Z,8.30
2017-07-16T23:41:23.913Z,9.00
2017-07-16T23:43:50.148Z,8.43
2017-07-16T23:46:16.380Z,9.30
2017-07-16T23:48:42.645Z,7.77
2017-07-16T23:51:10.188Z,9.10
2017-07-16T23:53:36.397Z,10.40
2017-07-16T23:56:02.703Z,9.57
2017-07-16T23:58:29.708Z,9.83
